createdAt,value
2022-10-22T00:02:21.159Z,8.07
2022-10-22T00:07:24.034Z,8.06
2022-10-22T00:12:26.965Z,8.06
2022-10-22T00:17:29.688Z,8.07
2022-10-22T00:22:32.321Z,8.07
2022-10-22T00:27:34.994Z,8.07
2022-10-22T00:32:37.775Z,8.09
2022-10-22T00:37:40.763Z,8.10
2022-10-22T00:42:43.784Z,8.08
2022-10-22T00:47:46.679Z,8.09
2022-10-22T00:52:50.578Z,8.10
2022-10-22T00:57:56.100Z,8.11
2022-10-22T01:02:59.547Z,8.09
2022-10-22T01:08:02.446Z,8.08
2022-10-22T01:13:33.375Z,8.10
2022-10-22T01:18:59.704Z,8.14
2022-10-22T01:24:11.684Z,8.13
2022-10-22T01:29:18.708Z,8.14
2022-10-22T01:34:24.213Z,8.16
2022-10-22T01:39:29.646Z,8.18
2022-10-22T01:50:14.231Z,8.18
2022-10-22T01:55:54.659Z,8.21
2022-10-22T02:01:07.957Z,8.22
2022-10-22T02:06:17.516Z,8.19
2022-10-22T02:11:20.564Z,8.17
2022-10-22T02:16:28.885Z,8.19
2022-10-22T02:21:32.060Z,8.19
2022-10-22T02:26:45.202Z,8.17
2022-10-22T02:31:50.089Z,8.15
2022-10-22T02:36:54.798Z,8.16
2022-10-22T02:41:58.205Z,8.15
2022-10-22T02:47:01.235Z,8.12
2022-10-22T02:52:04.384Z,8.11
2022-10-22T02:57:07.394Z,8.12
2022-10-22T03:02:10.208Z,8.13
2022-10-22T03:07:12.866Z,8.13
2022-10-22T03:12:15.553Z,8.16
2022-10-22T03:17:18.275Z,8.17
2022-10-22T03:22:26.724Z,8.15
2022-10-22T03:27:30.412Z,8.15
2022-10-22T03:32:33.193Z,8.17
2022-10-22T03:37:36.909Z,8.20
2022-10-22T03:42:41.716Z,8.20
2022-10-22T03:47:44.442Z,8.19
2022-10-22T03:52:47.151Z,8.21
2022-10-22T03:57:50.130Z,8.23
2022-10-22T04:02:52.808Z,8.23
2022-10-22T04:07:55.500Z,8.25
2022-10-22T04:12:58.178Z,8.28
2022-10-22T04:18:00.837Z,8.30
2022-10-22T04:23:03.526Z,8.29
2022-10-22T04:28:08.334Z,8.29
2022-10-22T04:33:11.049Z,8.30
2022-10-22T04:38:13.804Z,8.30
2022-10-22T04:43:16.491Z,8.29
2022-10-22T04:48:19.112Z,8.33
2022-10-22T04:53:21.788Z,8.36
2022-10-22T04:58:24.492Z,8.36
2022-10-22T05:03:28.368Z,8.36
2022-10-22T05:08:31.029Z,8.40
2022-10-22T05:13:33.707Z,8.42
2022-10-22T05:18:41.784Z,8.41
2022-10-22T05:23:46.112Z,8.42
2022-10-22T05:28:49.857Z,8.45
2022-10-22T05:33:52.488Z,8.47
2022-10-22T05:38:55.306Z,8.48
2022-10-22T05:43:59.632Z,8.51
2022-10-22T05:49:05.239Z,8.55
2022-10-22T05:54:08.984Z,8.56
2022-10-22T05:59:11.991Z,8.61
2022-10-22T06:04:16.298Z,8.70
2022-10-22T06:09:30.611Z,8.76
2022-10-22T06:14:34.012Z,8.79
2022-10-22T06:19:36.817Z,8.85
2022-10-22T06:24:41.658Z,8.92
2022-10-22T06:29:48.578Z,8.99
2022-10-22T06:34:52.106Z,9.13
2022-10-22T06:39:54.778Z,9.33
2022-10-22T06:44:57.499Z,9.46
2022-10-22T06:50:00.326Z,9.58
2022-10-22T06:55:03.138Z,9.69
2022-10-22T07:00:07.631Z,9.82
2022-10-22T07:05:10.421Z,9.86
2022-10-22T07:10:13.514Z,9.92
2022-10-22T07:15:16.355Z,10.07
2022-10-22T07:20:19.156Z,10.20
2022-10-22T07:25:21.848Z,10.32
2022-10-22T07:30:24.612Z,10.42
2022-10-22T07:35:27.567Z,10.49
2022-10-22T07:40:30.706Z,10.58
2022-10-22T07:45:33.985Z,10.68
2022-10-22T07:50:36.802Z,10.68
2022-10-22T07:55:39.542Z,10.69
2022-10-22T08:00:42.229Z,10.72
2022-10-22T08:05:45.537Z,10.75
2022-10-22T08:10:51.060Z,10.85
2022-10-22T08:15:57.266Z,11.05
2022-10-22T08:21:00.443Z,11.16
2022-10-22T08:26:03.578Z,11.19
2022-10-22T08:31:08.973Z,11.17
2022-10-22T08:36:12.076Z,11.13
2022-10-22T08:41:22.204Z,11.05
2022-10-22T08:46:40.167Z,11.00
2022-10-22T08:51:43.229Z,10.99
2022-10-22T08:57:11.390Z,11.00
2022-10-22T09:02:26.356Z,11.03
2022-10-22T09:07:29.158Z,11.03
2022-10-22T09:12:31.974Z,11.09
2022-10-22T09:17:59.377Z,11.17
2022-10-22T09:23:29.200Z,11.33
2022-10-22T09:28:32.177Z,11.51
2022-10-22T09:33:35.004Z,11.61
2022-10-22T09:38:46.515Z,11.59
2022-10-22T09:43:49.888Z,11.52
2022-10-22T09:48:55.646Z,11.48
2022-10-22T09:54:02.046Z,11.49
2022-10-22T09:59:04.928Z,11.56
2022-10-22T10:04:13.382Z,11.59
2022-10-22T10:09:19.569Z,11.68
2022-10-22T10:14:54.652Z,11.81
2022-10-22T10:20:21.435Z,11.95
2022-10-22T10:25:32.128Z,12.04
2022-10-22T10:30:44.343Z,12.13
2022-10-22T10:36:29.005Z,12.25
2022-10-22T10:41:47.112Z,12.38
2022-10-22T10:47:05.665Z,12.41
2022-10-22T10:52:18.826Z,12.37
2022-10-22T10:57:48.164Z,12.34
2022-10-22T11:03:09.872Z,12.28
2022-10-22T11:08:21.596Z,12.20
2022-10-22T11:13:31.956Z,12.17
2022-10-22T11:18:40.705Z,12.15
2022-10-22T11:24:05.285Z,12.09
2022-10-22T11:29:27.265Z,12.05
2022-10-22T11:34:44.073Z,12.12
2022-10-22T11:39:59.855Z,12.14
2022-10-22T11:45:23.550Z,12.19
2022-10-22T11:50:47.107Z,12.16
2022-10-22T11:55:53.086Z,12.18
2022-10-22T12:01:23.897Z,12.15
2022-10-22T12:06:28.140Z,12.14
2022-10-22T12:11:39.768Z,12.15
2022-10-22T12:17:02.228Z,12.15
2022-10-22T12:22:13.576Z,12.16
2022-10-22T12:27:22.522Z,12.15
2022-10-22T12:32:42.965Z,12.18
2022-10-22T12:37:50.176Z,12.23
2022-10-22T12:42:56.125Z,12.29
2022-10-22T12:48:08.356Z,12.36
2022-10-22T12:53:21.946Z,12.38
2022-10-22T12:58:29.675Z,12.35
2022-10-22T13:03:50.138Z,12.36
2022-10-22T13:09:00.637Z,12.34
2022-10-22T13:14:38.833Z,12.29
2022-10-22T13:20:05.425Z,12.31
2022-10-22T13:25:20.139Z,12.34
2022-10-22T13:30:27.544Z,12.34
2022-10-22T13:35:36.027Z,12.34
2022-10-22T13:40:39.342Z,12.34
2022-10-22T13:45:44.681Z,12.36
2022-10-22T13:50:48.711Z,12.38
2022-10-22T13:55:51.590Z,12.39
2022-10-22T14:00:58.056Z,12.40
2022-10-22T14:06:01.233Z,12.41
2022-10-22T14:11:04.084Z,12.41
2022-10-22T14:16:09.172Z,12.39
2022-10-22T14:21:14.080Z,12.36
2022-10-22T14:26:28.275Z,12.36
2022-10-22T14:31:32.044Z,12.34
2022-10-22T14:36:34.785Z,12.35
2022-10-22T14:41:38.288Z,12.34
2022-10-22T14:46:42.789Z,12.33
2022-10-22T14:51:46.993Z,12.35
2022-10-22T14:56:49.686Z,12.37
2022-10-22T15:01:52.423Z,12.36
2022-10-22T15:06:56.617Z,12.32
2022-10-22T15:11:59.944Z,12.33
2022-10-22T15:17:02.761Z,12.35
2022-10-22T15:22:05.979Z,12.35
2022-10-22T15:27:09.030Z,12.30
2022-10-22T15:32:11.766Z,12.30
2022-10-22T15:37:15.677Z,12.30
2022-10-22T15:42:19.049Z,12.30
2022-10-22T15:47:22.775Z,12.34
2022-10-22T15:52:25.494Z,12.39
2022-10-22T15:57:28.281Z,12.41
2022-10-22T16:02:30.948Z,12.42
2022-10-22T16:07:33.637Z,12.37
2022-10-22T16:12:36.386Z,12.33
2022-10-22T16:17:39.193Z,12.32
2022-10-22T16:22:42.257Z,12.29
2022-10-22T16:27:51.160Z,12.29
2022-10-22T16:32:54.648Z,12.34
2022-10-22T16:37:57.751Z,12.40
2022-10-22T16:43:00.471Z,12.44
2022-10-22T16:48:03.398Z,12.43
2022-10-22T16:53:06.127Z,12.40
2022-10-22T16:58:08.834Z,12.41
2022-10-22T17:03:12.175Z,12.43
2022-10-22T17:08:14.907Z,12.47
2022-10-22T17:13:17.692Z,12.51
2022-10-22T17:18:20.392Z,12.51
2022-10-22T17:23:23.116Z,12.52
2022-10-22T17:28:26.683Z,12.56
2022-10-22T17:33:29.579Z,12.59
2022-10-22T17:38:32.783Z,12.60
2022-10-22T17:43:36.670Z,12.60
2022-10-22T17:48:39.512Z,12.59
2022-10-22T17:53:47.194Z,12.59
2022-10-22T17:58:50.978Z,12.62
2022-10-22T18:03:55.562Z,12.65
2022-10-22T18:08:58.748Z,12.68
2022-10-22T18:14:01.991Z,12.68
2022-10-22T18:19:05.453Z,12.66
2022-10-22T18:24:09.603Z,12.63
2022-10-22T18:29:16.137Z,12.60
2022-10-22T18:34:21.685Z,12.64
2022-10-22T18:39:26.783Z,12.70
2022-10-22T18:44:29.453Z,12.71
2022-10-22T18:49:32.135Z,12.71
2022-10-22T18:54:35.174Z,12.74
2022-10-22T18:59:38.344Z,12.72
2022-10-22T19:04:42.381Z,12.73
2022-10-22T19:09:45.128Z,12.72
2022-10-22T19:14:49.397Z,12.75
2022-10-22T19:19:52.594Z,12.78
2022-10-22T19:24:55.548Z,12.82
2022-10-22T19:29:58.316Z,12.81
2022-10-22T19:35:01.074Z,12.77
2022-10-22T19:40:07.353Z,12.77
2022-10-22T19:45:10.367Z,12.82
2022-10-22T19:50:13.470Z,12.84
2022-10-22T19:55:16.239Z,12.82
2022-10-22T20:00:18.971Z,12.80
2022-10-22T20:10:30.604Z,12.80
2022-10-22T20:15:34.752Z,12.82
2022-10-22T20:20:39.060Z,12.83
2022-10-22T20:25:44.181Z,12.83
2022-10-22T20:30:47.224Z,12.85
2022-10-22T20:36:05.719Z,12.89
2022-10-22T20:41:11.790Z,12.90
2022-10-22T20:46:20.629Z,12.91
2022-10-22T20:51:24.958Z,12.95
2022-10-22T20:56:28.595Z,12.93
2022-10-22T21:01:33.998Z,12.94
2022-10-22T21:06:41.812Z,12.97
2022-10-22T21:11:44.716Z,12.98
2022-10-22T21:16:50.704Z,13.00
2022-10-22T21:21:53.710Z,13.03
2022-10-22T21:26:56.594Z,13.03
2022-10-22T21:31:59.421Z,12.99
2022-10-22T21:37:02.108Z,12.98
2022-10-22T21:42:04.960Z,12.99
2022-10-22T21:47:07.671Z,13.03
2022-10-22T21:52:10.483Z,13.06
2022-10-22T21:57:13.336Z,13.03
2022-10-22T22:02:16.146Z,13.01
2022-10-22T22:07:18.880Z,13.02
2022-10-22T22:12:21.620Z,13.06
2022-10-22T22:17:24.299Z,13.10
2022-10-22T22:22:27.969Z,13.09
2022-10-22T22:27:30.677Z,13.06
2022-10-22T22:32:33.436Z,13.06
2022-10-22T22:37:36.133Z,13.09
2022-10-22T22:42:38.855Z,13.12
2022-10-22T22:47:41.775Z,13.15
2022-10-22T22:52:44.736Z,13.12
2022-10-22T22:57:47.518Z,13.08
2022-10-22T23:02:54.675Z,13.05
2022-10-22T23:07:57.458Z,13.02
2022-10-22T23:13:00.206Z,12.97
2022-10-22T23:18:02.949Z,12.91
2022-10-22T23:23:08.612Z,12.90
2022-10-22T23:28:11.321Z,12.89
2022-10-22T23:33:15.112Z,12.86
2022-10-22T23:38:17.847Z,12.85
2022-10-22T23:43:20.900Z,12.88
2022-10-22T23:48:24.247Z,12.86
2022-10-22T23:53:27.059Z,12.85
2022-10-22T23:58:29.783Z,12.86
